Time;durP1;ratioP1;P1;durP2;ratioP2;P2;SDS_P1;SDS_P2;PMS_P1;PMS_P2;Temp;Humidity;BMP_temperature;BMP_pressure;BME280_temperature;BME280_humidity;BME280_pressure;Samples;Min_cycle;Max_cycle;Signal;HPM_P1;HPM_P2
2022/12/07 00:01:27;;;;;;;16.38;15.35;;;;;;;7.20;66.76;101746.50;5012488;28;20474;-72
2022/12/07 00:03:57;;;;;;;16.75;15.75;;;;;;;7.20;66.98;101746.50;5013425;28;20066;-68
2022/12/07 00:06:22;;;;;;;17.25;15.98;;;;;;;7.19;66.91;101747.53;5012661;28;20037;-69
2022/12/07 00:08:48;;;;;;;17.73;16.35;;;;;;;7.17;67.09;101750.41;5012547;28;20030;-70
2022/12/07 00:11:19;;;;;;;16.67;15.48;;;;;;;7.18;66.93;101748.53;5013611;28;20072;-69
2022/12/07 00:13:45;;;;;;;16.52;15.27;;;;;;;7.17;66.92;101746.91;5013349;28;20076;-68
2022/12/07 00:16:16;;;;;;;16.10;15.02;;;;;;;7.17;66.77;101746.91;5015741;28;20029;-68
2022/12/07 00:18:43;;;;;;;16.63;15.45;;;;;;;7.15;66.76;101745.22;5012906;28;20531;-69
2022/12/07 00:21:14;;;;;;;15.00;14.10;;;;;;;7.15;67.10;101739.84;5013633;28;20029;-67
2022/12/07 00:23:41;;;;;;;17.20;16.10;;;;;;;7.14;66.94;101740.88;5012400;28;20033;-68
2022/12/07 00:26:12;;;;;;;16.80;15.63;;;;;;;7.15;67.12;101752.47;5011799;28;20128;-69
2022/12/07 00:28:38;;;;;;;17.92;16.42;;;;;;;7.14;66.74;101742.75;5016652;28;20040;-69
2022/12/07 00:31:06;;;;;;;15.95;14.85;;;;;;;7.14;66.75;101742.75;5011023;28;20069;-68
2022/12/07 00:33:33;;;;;;;17.95;16.70;;;;;;;7.13;66.89;101733.00;5011980;28;20076;-69
2022/12/07 00:35:59;;;;;;;16.27;15.27;;;;;;;7.11;66.96;101738.59;5012712;28;20026;-72
2022/12/07 00:38:28;;;;;;;18.38;17.00;;;;;;;7.11;66.92;101737.78;5012999;28;20042;-69
2022/12/07 00:40:55;;;;;;;15.57;14.57;;;;;;;7.10;66.98;101736.91;5011433;28;20038;-69
2022/12/07 00:43:21;;;;;;;16.30;15.07;;;;;;;7.11;66.97;101741.28;5012727;28;20470;-74
2022/12/07 00:45:46;;;;;;;15.90;14.73;;;;;;;7.10;66.74;101730.72;5012637;28;20061;-69
2022/12/07 00:48:11;;;;;;;16.42;15.43;;;;;;;7.09;67.04;101729.91;5011721;28;20069;-70
2022/12/07 00:50:37;;;;;;;18.58;17.05;;;;;;;7.08;66.91;101733.63;5010576;28;20060;-68
2022/12/07 00:53:02;;;;;;;16.27;15.38;;;;;;;7.07;66.76;101729.25;5013109;28;20034;-68
2022/12/07 00:55:28;;;;;;;17.08;15.98;;;;;;;7.08;66.70;101722.00;5012264;28;20076;-67
2022/12/07 00:57:53;;;;;;;17.02;15.93;;;;;;;7.07;66.87;101731.94;5013418;28;20080;-69
2022/12/07 01:00:19;;;;;;;16.38;15.27;;;;;;;7.07;66.85;101725.75;5013205;28;20485;-69
2022/12/07 01:02:44;;;;;;;17.33;16.13;;;;;;;7.06;66.95;101721.41;5003120;28;20417;-69
2022/12/07 01:05:09;;;;;;;16.77;15.77;;;;;;;7.06;67.05;101729.47;5012587;28;20046;-68
2022/12/07 01:07:35;;;;;;;17.10;15.82;;;;;;;7.06;66.74;101726.78;5011169;28;20037;-68
2022/12/07 01:10:00;;;;;;;18.00;16.80;;;;;;;7.04;66.90;101729.66;5012683;28;20558;-68
2022/12/07 01:12:26;;;;;;;16.08;15.00;;;;;;;7.04;66.99;101716.22;5010051;28;20049;-72
2022/12/07 01:14:51;;;;;;;16.00;14.80;;;;;;;7.04;67.08;101726.13;5012461;28;20026;-68
2022/12/07 01:17:16;;;;;;;17.00;15.90;;;;;;;7.03;66.93;101719.94;5012249;28;20109;-68
2022/12/07 01:19:42;;;;;;;18.98;17.27;;;;;;;7.03;66.96;101713.72;5011010;28;20066;-68
2022/12/07 01:22:07;;;;;;;15.75;14.73;;;;;;;7.03;66.84;101719.09;5010274;28;20441;-69
2022/12/07 01:24:32;;;;;;;17.17;15.73;;;;;;;7.02;66.87;101725.50;5011852;28;20058;-68
2022/12/07 01:26:58;;;;;;;15.90;14.90;;;;;;;7.02;66.86;101722.81;5027060;28;20504;-69
2022/12/07 01:29:23;;;;;;;17.23;15.77;;;;;;;7.01;66.93;101726.53;5013080;28;20508;-68
2022/12/07 01:31:49;;;;;;;16.17;15.02;;;;;;;7.01;66.77;101738.09;5008285;28;20395;-70
2022/12/07 01:34:17;;;;;;;14.48;13.63;;;;;;;7.00;66.76;101740.97;5011690;28;20028;-67
2022/12/07 01:36:42;;;;;;;18.13;16.83;;;;;;;6.99;67.03;101728.59;5011714;28;20033;-68
2022/12/07 01:39:09;;;;;;;20.50;16.15;;;;;;;6.99;66.88;101726.72;5009935;28;20037;-68
2022/12/07 01:41:40;;;;;;;18.10;16.60;;;;;;;6.98;66.82;101719.69;5011543;28;20065;-69
2022/12/07 01:44:18;;;;;;;16.58;15.27;;;;;;;6.98;66.94;101713.47;5003740;28;20075;-69
2022/12/07 01:46:46;;;;;;;18.53;16.87;;;;;;;6.98;66.74;101719.69;5011020;28;20041;-68
2022/12/07 01:49:29;;;;;;;16.13;15.00;;;;;;;6.97;66.81;101717.19;5010169;28;20038;-68
2022/12/07 01:52:02;;;;;;;15.23;14.25;;;;;;;6.96;67.13;101721.75;5021740;28;20068;-69
2022/12/07 01:54:28;;;;;;;15.18;14.07;;;;;;;6.96;66.82;101724.44;5011406;28;20486;-74
2022/12/07 01:56:56;;;;;;;16.92;15.93;;;;;;;6.96;67.00;101718.22;5010789;28;20033;-69
2022/12/07 01:59:25;;;;;;;20.52;14.95;;;;;;;6.95;66.75;101720.06;5010846;28;20029;-67
2022/12/07 02:01:51;;;;;;;15.75;14.65;;;;;;;6.94;66.84;101716.56;5011843;28;20222;-68
2022/12/07 02:04:18;;;;;;;16.20;15.25;;;;;;;6.95;66.93;101717.38;5005521;28;20065;-69
2022/12/07 02:06:44;;;;;;;16.48;15.32;;;;;;;6.95;67.06;101714.69;5009570;28;20045;-69
2022/12/07 02:09:10;;;;;;;14.82;13.90;;;;;;;6.93;66.72;101714.91;5011823;28;20030;-69
2022/12/07 02:11:35;;;;;;;18.33;16.75;;;;;;;6.94;66.67;101718.41;5009662;28;20498;-68
2022/12/07 02:14:01;;;;;;;16.05;15.05;;;;;;;6.93;66.99;101708.72;5011467;28;20064;-70
2022/12/07 02:16:39;;;;;;;15.02;14.13;;;;;;;6.93;67.14;101719.44;5011685;28;20066;-68
2022/12/07 02:19:28;;;;;;;15.05;14.07;;;;;;;6.92;67.05;101718.59;5010407;28;20044;-69
2022/12/07 02:22:26;;;;;;;15.23;14.20;;;;;;;6.91;66.81;101716.94;5021017;28;20063;-68
2022/12/07 02:25:07;;;;;;;16.20;15.10;;;;;;;6.90;66.73;101725.19;5001159;28;20109;-69
2022/12/07 02:27:39;;;;;;;13.88;12.88;;;;;;;6.90;66.74;101714.44;5011090;28;20050;-73
2022/12/07 02:30:15;;;;;;;15.40;14.30;;;;;;;6.90;66.78;101714.44;5009908;28;20033;-69
2022/12/07 02:32:43;;;;;;;15.98;14.82;;;;;;;6.89;66.73;101710.13;5008580;28;20040;-67
2022/12/07 02:35:24;;;;;;;14.37;13.57;;;;;;;6.88;66.74;101714.66;5011414;28;20120;-70
2022/12/07 02:38:07;;;;;;;17.33;15.23;;;;;;;6.88;67.06;101727.25;5009411;28;20315;-72
2022/12/07 02:40:44;;;;;;;15.30;14.30;;;;;;;6.88;66.74;101730.78;4995578;28;20394;-71
2022/12/07 02:43:21;;;;;;;13.60;12.88;;;;;;;6.87;66.93;101729.09;5020704;28;20033;-67
2022/12/07 02:45:49;;;;;;;16.40;15.23;;;;;;;6.87;66.73;101726.41;5019334;28;20474;-68
2022/12/07 02:48:18;;;;;;;15.00;13.53;;;;;;;6.86;67.01;101718.56;5011289;28;20049;-67
2022/12/07 02:50:51;;;;;;;15.18;14.18;;;;;;;6.86;66.98;101713.19;5009466;28;20034;-68
2022/12/07 02:53:30;;;;;;;17.40;16.40;;;;;;;6.85;66.92;101717.72;5016428;28;20041;-67
2022/12/07 02:55:56;;;;;;;15.25;14.00;;;;;;;6.85;66.86;101700.78;5017330;28;20105;-68
2022/12/07 02:58:51;;;;;;;14.52;13.73;;;;;;;6.84;66.80;101699.94;5011482;28;20382;-67
2022/12/07 03:01:22;;;;;;;15.70;14.80;;;;;;;6.83;66.83;101711.72;5009868;28;20421;-67
2022/12/07 03:04:00;;;;;;;17.48;16.15;;;;;;;6.83;66.72;101709.03;5011241;28;20038;-68
2022/12/07 03:06:36;;;;;;;14.40;13.50;;;;;;;6.84;67.03;101709.88;5013626;28;20450;-68
2022/12/07 03:09:16;;;;;;;14.00;13.30;;;;;;;6.83;66.90;101711.72;5014043;28;20029;-69
2022/12/07 03:11:46;;;;;;;16.35;15.13;;;;;;;6.82;67.02;101717.28;5004402;28;20038;-69
2022/12/07 03:14:24;;;;;;;14.65;13.75;;;;;;;6.81;67.00;101719.13;5012458;28;20030;-69
2022/12/07 03:17:00;;;;;;;17.08;15.70;;;;;;;6.82;66.72;101723.47;4997629;28;20030;-67
2022/12/07 03:19:27;;;;;;;15.43;13.93;;;;;;;6.81;66.93;101711.09;5014768;28;20042;-68
2022/12/07 03:22:00;;;;;;;17.25;16.05;;;;;;;6.82;66.71;101709.22;5013377;28;20363;-67
2022/12/07 03:24:29;;;;;;;15.43;14.43;;;;;;;6.82;67.16;101714.59;5012905;28;20022;-69
2022/12/07 03:27:03;;;;;;;18.88;17.13;;;;;;;6.81;67.11;101708.41;5011316;28;20189;-68
2022/12/07 03:29:35;;;;;;;15.43;14.43;;;;;;;6.81;66.73;101704.88;5009683;28;20029;-67
2022/12/07 03:32:06;;;;;;;15.80;14.70;;;;;;;6.81;67.01;101708.41;5013873;28;20025;-68
2022/12/07 03:34:49;;;;;;;16.02;15.13;;;;;;;6.81;67.02;101708.41;5012627;28;20034;-68
2022/12/07 03:37:23;;;;;;;15.73;14.57;;;;;;;6.80;67.07;101700.53;5013517;28;20041;-69
2022/12/07 03:40:13;;;;;;;16.38;14.95;;;;;;;6.80;67.12;101695.16;5013207;28;20181;-68
2022/12/07 03:42:39;;;;;;;15.00;13.98;;;;;;;6.80;67.01;101708.59;5021940;28;20539;-71
2022/12/07 03:45:06;;;;;;;14.50;13.70;;;;;;;6.80;66.75;101703.22;5015595;28;20038;-68
2022/12/07 03:47:41;;;;;;;15.45;14.48;;;;;;;6.78;66.67;101698.06;5012762;28;20042;-69
2022/12/07 03:50:25;;;;;;;14.45;13.50;;;;;;;6.79;66.97;101697.00;5013966;28;20038;-69
2022/12/07 03:53:00;;;;;;;16.58;15.45;;;;;;;6.79;66.71;101705.06;5013726;28;20088;-68
2022/12/07 03:55:39;;;;;;;14.10;13.20;;;;;;;6.79;66.77;101709.63;5012071;28;20053;-67
2022/12/07 03:58:11;;;;;;;17.27;14.30;;;;;;;6.79;67.11;101706.94;5012406;28;20060;-66
2022/12/07 04:00:37;;;;;;;15.30;13.95;;;;;;;6.78;66.72;101706.09;5013982;28;20471;-67
2022/12/07 04:03:03;;;;;;;15.00;14.20;;;;;;;6.77;66.88;101709.78;5012784;28;20096;-67
2022/12/07 04:05:28;;;;;;;15.50;14.55;;;;;;;6.77;66.89;101700.91;5011174;28;20045;-68
2022/12/07 04:07:54;;;;;;;16.98;15.75;;;;;;;6.78;66.85;101702.56;5012122;28;20109;-69
2022/12/07 04:10:19;;;;;;;15.40;14.30;;;;;;;6.77;66.90;101698.22;5012850;28;20045;-69
2022/12/07 04:12:45;;;;;;;16.00;15.02;;;;;;;6.77;67.17;101704.44;5013913;28;20065;-69
2022/12/07 04:15:11;;;;;;;15.38;14.38;;;;;;;6.77;66.86;101708.97;5016431;28;20038;-68
2022/12/07 04:17:36;;;;;;;16.30;15.05;;;;;;;6.77;66.77;101708.97;5004914;28;20030;-67
2022/12/07 04:20:04;;;;;;;17.08;15.52;;;;;;;6.76;66.88;101716.19;5011399;28;20046;-68
2022/12/07 04:22:29;;;;;;;15.73;14.55;;;;;;;6.75;66.71;101701.09;5013276;28;20029;-67
2022/12/07 04:24:55;;;;;;;16.67;15.20;;;;;;;6.76;67.13;101704.63;5018150;28;20049;-67
2022/12/07 04:27:20;;;;;;;15.02;14.13;;;;;;;6.75;66.94;101713.69;5012300;28;20034;-67
2022/12/07 04:29:46;;;;;;;15.43;14.13;;;;;;;6.74;66.99;101710.19;5012429;28;20045;-73
2022/12/07 04:32:11;;;;;;;15.27;14.27;;;;;;;6.74;66.91;101696.75;5013468;28;20045;-67
2022/12/07 04:34:36;;;;;;;16.00;15.00;;;;;;;6.74;66.96;101693.25;5018058;28;20037;-69
2022/12/07 04:37:02;;;;;;;17.17;15.98;;;;;;;6.73;66.95;101687.06;5013373;28;20486;-68
2022/12/07 04:39:31;;;;;;;14.88;13.88;;;;;;;6.72;67.13;101691.56;5011884;28;20033;-69
2022/12/07 04:41:58;;;;;;;17.95;16.15;;;;;;;6.73;66.67;101687.06;5012773;28;20025;-69
2022/12/07 04:44:25;;;;;;;14.48;13.57;;;;;;;6.72;66.98;101691.56;5027755;28;20422;-67
2022/12/07 04:46:51;;;;;;;16.38;15.27;;;;;;;6.72;66.85;101699.63;5016623;28;20096;-68
2022/12/07 04:49:17;;;;;;;14.88;13.68;;;;;;;6.72;67.01;101701.50;5011502;28;20030;-68
2022/12/07 04:51:43;;;;;;;15.93;14.93;;;;;;;6.72;66.92;101696.94;5012628;28;20040;-68
2022/12/07 04:54:09;;;;;;;14.55;13.30;;;;;;;6.72;67.02;101690.75;5012271;28;20033;-67
2022/12/07 04:56:35;;;;;;;14.98;14.07;;;;;;;6.71;66.93;101686.41;5020877;28;20111;-67
2022/12/07 04:59:01;;;;;;;14.82;13.93;;;;;;;6.71;66.67;101681.06;5011226;28;20026;-69
2022/12/07 05:01:26;;;;;;;14.10;13.30;;;;;;;6.71;67.00;101673.00;5012626;28;20037;-68
2022/12/07 05:03:52;;;;;;;16.73;15.45;;;;;;;6.70;67.10;101677.53;5010918;28;20121;-67
2022/12/07 05:06:17;;;;;;;16.27;14.80;;;;;;;6.71;66.99;101671.13;5011581;28;20121;-68
2022/12/07 05:08:43;;;;;;;16.67;15.57;;;;;;;6.71;66.85;101684.56;5008322;28;20038;-67
2022/12/07 05:11:09;;;;;;;16.58;15.48;;;;;;;6.71;67.08;101676.50;5004213;28;20033;-68
2022/12/07 05:13:35;;;;;;;14.98;13.52;;;;;;;6.71;67.08;101678.38;5012244;28;20022;-70
2022/12/07 05:16:01;;;;;;;16.73;15.50;;;;;;;6.71;66.87;101670.31;5011741;28;20088;-71
2022/12/07 05:18:27;;;;;;;14.77;13.68;;;;;;;6.70;67.00;101672.16;5018893;28;20042;-67
2022/12/07 05:20:52;;;;;;;15.85;14.70;;;;;;;6.70;66.81;101668.63;5007957;28;20030;-71
2022/12/07 05:23:18;;;;;;;14.73;13.40;;;;;;;6.70;66.71;101672.16;5012098;28;20030;-68
2022/12/07 05:25:44;;;;;;;15.57;14.68;;;;;;;6.69;67.03;101666.97;5012114;28;20383;-67
2022/12/07 05:28:10;;;;;;;16.58;15.30;;;;;;;6.71;67.14;101673.00;5009504;28;20587;-67
2022/12/07 05:30:35;;;;;;;14.88;13.52;;;;;;;6.69;66.86;101670.50;5010422;28;20038;-68
2022/12/07 05:33:01;;;;;;;15.20;14.05;;;;;;;6.69;67.12;101675.03;5011770;28;20513;-67
2022/12/07 05:35:26;;;;;;;14.77;13.82;;;;;;;6.69;66.83;101669.66;5012708;28;20088;-68
2022/12/07 05:37:52;;;;;;;14.80;13.77;;;;;;;6.69;67.05;101680.41;5009379;28;20029;-71
2022/12/07 05:40:18;;;;;;;18.27;14.77;;;;;;;6.68;66.96;101673.38;5013252;28;20070;-68
2022/12/07 05:42:44;;;;;;;15.70;14.32;;;;;;;6.68;66.85;101668.03;5011624;28;20030;-67
2022/12/07 05:45:10;;;;;;;16.15;15.15;;;;;;;6.67;67.12;101667.16;5011554;28;20390;-68
2022/12/07 05:47:36;;;;;;;14.45;13.65;;;;;;;6.68;66.84;101673.38;5011991;28;20058;-72
2022/12/07 05:50:03;;;;;;;15.80;14.75;;;;;;;6.68;66.67;101673.38;5011040;28;20049;-67
2022/12/07 05:52:29;;;;;;;14.05;13.25;;;;;;;6.67;66.88;101671.72;5005327;28;20029;-69
2022/12/07 05:54:54;;;;;;;15.80;14.48;;;;;;;6.67;66.93;101663.66;5011308;28;20149;-71
2022/12/07 05:57:19;;;;;;;15.82;14.50;;;;;;;6.66;67.11;101667.38;5012607;28;20030;-67
2022/12/07 05:59:45;;;;;;;14.30;13.40;;;;;;;6.65;66.93;101658.50;5010431;28;20398;-68
2022/12/07 06:02:13;;;;;;;16.02;14.80;;;;;;;6.65;66.75;101655.81;5001875;28;20042;-68
2022/12/07 06:04:42;;;;;;;14.00;13.20;;;;;;;6.65;66.68;101663.88;5008540;28;20056;-68
2022/12/07 06:07:08;;;;;;;16.08;14.98;;;;;;;6.65;67.07;101661.19;5010888;28;20030;-69
2022/12/07 06:09:34;;;;;;;15.00;13.80;;;;;;;6.64;66.82;101667.56;5009222;28;20037;-68
2022/12/07 06:14:44;;;;;;;14.25;13.20;;;;;;;6.63;66.69;101668.59;5011284;28;20123;-67
2022/12/07 06:17:10;;;;;;;16.38;15.10;;;;;;;6.62;66.99;101677.66;5010896;28;20034;-67
2022/12/07 06:19:36;;;;;;;14.57;13.77;;;;;;;6.62;66.66;101679.50;5010500;28;20092;-69
2022/12/07 06:22:04;;;;;;;17.50;16.30;;;;;;;6.62;66.80;101677.66;5010307;28;20064;-67
2022/12/07 06:24:30;;;;;;;13.37;12.67;;;;;;;6.61;66.78;101677.88;5010864;28;20104;-67
2022/12/07 06:26:55;;;;;;;13.48;12.68;;;;;;;6.61;66.75;101673.31;5011177;28;20684;-73
2022/12/07 06:29:21;;;;;;;15.40;14.50;;;;;;;6.60;66.93;101671.69;5010862;28;20118;-72
2022/12/07 06:31:47;;;;;;;16.40;15.05;;;;;;;6.61;67.05;101672.50;5009986;28;20540;-68
2022/12/07 06:34:15;;;;;;;15.85;14.73;;;;;;;6.58;67.07;101668.34;5010839;28;20042;-69
2022/12/07 06:36:41;;;;;;;15.77;14.68;;;;;;;6.58;66.85;101676.41;5010710;28;20100;-69
2022/12/07 06:39:08;;;;;;;15.73;14.65;;;;;;;6.58;66.65;101673.72;5013910;28;20489;-67
2022/12/07 06:41:37;;;;;;;15.95;14.82;;;;;;;6.58;66.70;101675.56;5014772;28;20045;-69
2022/12/07 06:44:04;;;;;;;16.02;14.68;;;;;;;6.57;66.72;101676.59;5007923;28;20383;-68
2022/12/07 06:46:29;;;;;;;16.23;15.15;;;;;;;6.56;66.93;101678.44;5015529;28;20034;-68
2022/12/07 06:48:55;;;;;;;14.75;13.85;;;;;;;6.56;66.92;101673.06;5015121;28;20092;-70
2022/12/07 06:51:20;;;;;;;14.65;13.85;;;;;;;6.55;66.84;101676.78;5013038;28;20121;-67
2022/12/07 06:53:45;;;;;;;15.90;14.60;;;;;;;6.55;67.00;101667.88;5014541;28;20101;-68
2022/12/07 06:56:11;;;;;;;16.67;15.32;;;;;;;6.54;66.76;101676.97;5014774;28;20081;-67
2022/12/07 06:58:36;;;;;;;15.57;14.68;;;;;;;6.53;66.98;101670.78;5015024;28;20033;-69
2022/12/07 07:01:02;;;;;;;17.40;15.98;;;;;;;6.53;66.62;101667.25;5011221;28;20045;-68
2022/12/07 07:03:28;;;;;;;15.38;14.38;;;;;;;6.52;66.82;101663.72;5014541;28;20084;-67
2022/12/07 07:05:54;;;;;;;15.20;14.23;;;;;;;6.51;66.84;101664.78;5014857;28;20049;-67
2022/12/07 07:08:19;;;;;;;14.38;13.57;;;;;;;6.50;66.61;101673.81;5014106;28;20038;-69
2022/12/07 07:10:44;;;;;;;13.32;12.52;;;;;;;6.49;66.69;101669.50;5015199;28;20112;-67
2022/12/07 07:13:10;;;;;;;15.63;14.55;;;;;;;6.49;66.60;101685.59;5011896;28;20041;-69
2022/12/07 07:15:37;;;;;;;13.90;12.75;;;;;;;6.48;66.87;101692.00;5015804;28;20108;-70
2022/12/07 07:18:03;;;;;;;15.48;14.43;;;;;;;6.48;66.52;101692.00;4998948;28;20145;-67
2022/12/07 07:20:28;;;;;;;14.15;13.25;;;;;;;6.47;66.72;101691.16;5014208;28;20028;-67
2022/12/07 07:22:55;;;;;;;14.00;13.20;;;;;;;6.46;66.77;101705.59;5012980;28;20406;-67
2022/12/07 07:25:21;;;;;;;15.10;14.10;;;;;;;6.46;66.78;101694.03;5007470;28;20616;-69
2022/12/07 07:27:46;;;;;;;15.10;14.20;;;;;;;6.45;66.64;101703.94;5013403;28;20034;-69
2022/12/07 07:30:12;;;;;;;19.20;17.55;;;;;;;6.45;66.60;101700.41;5011246;28;20061;-73
2022/12/07 07:32:37;;;;;;;15.90;14.90;;;;;;;6.44;66.92;101688.84;5005501;28;20133;-71
2022/12/07 07:35:03;;;;;;;15.45;14.43;;;;;;;6.43;66.61;101689.88;5003234;28;20100;-71
2022/12/07 07:37:28;;;;;;;16.42;15.35;;;;;;;6.43;66.87;101681.00;5008867;28;20022;-74
2022/12/07 07:39:54;;;;;;;14.95;13.77;;;;;;;6.42;66.64;101682.84;5007276;28;20561;-71
2022/12/07 07:42:19;;;;;;;18.25;16.75;;;;;;;6.42;66.56;101687.38;5006915;28;20107;-68
2022/12/07 07:44:44;;;;;;;17.35;16.13;;;;;;;6.42;66.55;101680.16;4981889;28;20033;-68
2022/12/07 07:47:10;;;;;;;16.05;14.82;;;;;;;6.40;66.61;101687.59;5011839;28;20037;-68
2022/12/07 07:49:35;;;;;;;17.25;15.65;;;;;;;6.40;66.53;101676.88;5008065;28;20052;-68
2022/12/07 07:52:01;;;;;;;14.88;13.80;;;;;;;6.39;66.39;101696.66;5008602;28;20038;-69
2022/12/07 07:54:26;;;;;;;15.20;14.30;;;;;;;6.38;66.65;101697.69;5009005;28;20122;-69
2022/12/07 07:56:52;;;;;;;19.70;17.95;;;;;;;6.38;66.78;101695.00;5008406;28;20076;-71
2022/12/07 07:59:18;;;;;;;15.93;14.75;;;;;;;6.38;66.62;101694.19;5003795;28;20058;-70
2022/12/07 08:01:43;;;;;;;15.90;14.80;;;;;;;6.36;66.54;101697.03;5008216;28;20088;-71
2022/12/07 08:04:09;;;;;;;17.55;16.27;;;;;;;6.36;66.48;101694.34;5003725;28;20584;-69
2022/12/07 08:06:34;;;;;;;17.20;15.95;;;;;;;6.35;66.84;101695.41;5009632;28;20393;-68
2022/12/07 08:09:00;;;;;;;17.00;15.18;;;;;;;6.34;66.60;101699.06;5008739;28;20050;-71
2022/12/07 08:11:25;;;;;;;13.80;12.98;;;;;;;6.34;66.31;101700.94;5007402;28;20584;-68
2022/12/07 08:13:50;;;;;;;13.93;13.02;;;;;;;6.33;66.62;101701.97;5006464;28;20398;-69
2022/12/07 08:16:16;;;;;;;17.25;15.95;;;;;;;6.32;66.71;101695.75;5007350;28;20077;-67
2022/12/07 08:18:42;;;;;;;17.98;16.60;;;;;;;6.31;66.49;101702.16;5009196;28;20042;-68
2022/12/07 08:21:12;;;;;;;15.55;14.60;;;;;;;6.31;66.66;101702.16;5007576;28;20045;-69
2022/12/07 08:23:37;;;;;;;15.88;14.75;;;;;;;6.31;66.57;101699.47;5005447;28;20052;-68
2022/12/07 08:26:08;;;;;;;17.27;15.90;;;;;;;6.31;66.51;101699.47;5003926;28;20644;-69
2022/12/07 08:28:34;;;;;;;15.85;14.70;;;;;;;6.31;66.67;101704.00;5006207;28;20560;-69
2022/12/07 08:31:01;;;;;;;19.02;17.35;;;;;;;6.29;66.50;101710.38;5002829;28;20117;-69
2022/12/07 08:33:27;;;;;;;15.95;14.63;;;;;;;6.29;66.84;101718.44;5005676;28;20058;-70
2022/12/07 08:35:52;;;;;;;14.93;13.90;;;;;;;6.29;66.53;101720.28;5005148;28;20061;-69
2022/12/07 08:38:17;;;;;;;18.27;16.63;;;;;;;6.29;66.47;101717.59;5009110;28;20038;-69
2022/12/07 08:40:43;;;;;;;17.42;15.95;;;;;;;6.29;66.47;101720.28;5002962;28;20053;-70
2022/12/07 08:43:08;;;;;;;16.15;15.05;;;;;;;6.28;66.74;101716.78;5007134;28;20470;-72
2022/12/07 08:45:35;;;;;;;16.65;15.45;;;;;;;6.27;66.48;101725.88;5004039;28;20070;-72
2022/12/07 08:48:10;;;;;;;15.70;14.60;;;;;;;6.28;66.51;101718.63;5005870;28;20045;-68
2022/12/07 08:50:37;;;;;;;17.55;15.65;;;;;;;6.27;66.38;101709.75;5005544;28;20073;-68
2022/12/07 08:53:05;;;;;;;17.00;15.80;;;;;;;6.26;66.48;101707.25;5004780;28;20113;-69
2022/12/07 08:55:31;;;;;;;15.68;14.52;;;;;;;6.26;66.45;101707.25;5006053;28;20543;-69
2022/12/07 08:57:58;;;;;;;16.60;15.23;;;;;;;6.25;66.94;101702.94;5009216;28;20033;-68
2022/12/07 09:00:25;;;;;;;18.75;17.00;;;;;;;6.24;66.63;101699.38;5005744;28;20050;-69
2022/12/07 09:02:51;;;;;;;16.25;14.65;;;;;;;6.25;66.77;101701.06;5008401;28;20033;-68
2022/12/07 09:05:16;;;;;;;17.88;16.13;;;;;;;6.23;66.62;101696.91;5006903;28;20495;-67
2022/12/07 09:07:45;;;;;;;18.63;17.02;;;;;;;6.23;66.56;101697.75;5008011;28;20030;-68
2022/12/07 09:10:10;;;;;;;15.45;14.40;;;;;;;6.24;66.31;101698.56;5023999;28;20168;-72
2022/12/07 09:12:36;;;;;;;16.20;14.70;;;;;;;6.23;66.40;101695.06;5005610;28;20501;-68
2022/12/07 09:15:02;;;;;;;16.00;14.85;;;;;;;6.23;66.54;101702.28;5007634;28;20034;-70
2022/12/07 09:17:27;;;;;;;17.13;15.80;;;;;;;6.24;66.46;101701.25;5006086;28;20457;-72
2022/12/07 09:19:53;;;;;;;15.73;14.63;;;;;;;6.23;66.62;101695.06;5008479;28;20034;-68
2022/12/07 09:22:18;;;;;;;16.02;14.80;;;;;;;6.23;66.57;101696.91;5005077;28;20072;-68
2022/12/07 09:24:45;;;;;;;17.00;15.82;;;;;;;6.22;66.49;101696.09;5003306;28;20033;-68
2022/12/07 09:27:13;;;;;;;16.58;15.55;;;;;;;6.22;66.40;101696.09;4998813;28;20026;-74
2022/12/07 09:29:38;;;;;;;17.17;15.85;;;;;;;6.22;66.79;101700.59;5007264;28;20073;-68
2022/12/07 09:32:04;;;;;;;14.63;13.73;;;;;;;6.22;66.64;101700.59;5007200;28;20064;-68
2022/12/07 09:34:33;;;;;;;15.77;14.70;;;;;;;6.20;66.66;101694.59;5020411;28;20049;-69
2022/12/07 09:37:01;;;;;;;14.88;13.88;;;;;;;6.20;66.61;101703.50;5006428;28;20029;-69
2022/12/07 09:39:27;;;;;;;20.75;16.45;;;;;;;6.20;66.41;101702.63;5007975;28;20030;-67
2022/12/07 09:41:52;;;;;;;14.85;13.95;;;;;;;6.20;66.57;101699.94;5005290;28;20521;-73
2022/12/07 09:44:25;;;;;;;17.95;14.57;;;;;;;6.18;66.68;101700.16;5008465;28;20117;-68
2022/12/07 09:46:52;;;;;;;16.30;15.18;;;;;;;6.20;66.75;101708.84;5006641;28;20030;-69
2022/12/07 09:49:21;;;;;;;17.40;14.23;;;;;;;6.19;66.60;101692.94;5006098;28;20046;-71
2022/12/07 09:51:47;;;;;;;14.48;13.60;;;;;;;6.20;66.49;101694.59;5007162;28;20030;-68
2022/12/07 09:54:15;;;;;;;17.35;15.68;;;;;;;6.18;66.47;101700.16;5002290;28;20108;-75
2022/12/07 09:56:41;;;;;;;16.33;15.13;;;;;;;6.18;66.38;101702.84;5007781;28;20033;-68
2022/12/07 09:59:15;;;;;;;27.77;14.82;;;;;;;6.18;66.71;101702.84;5002063;28;20037;-70
2022/12/07 10:01:41;;;;;;;15.98;14.85;;;;;;;6.17;66.54;101695.81;5006573;28;20452;-71
2022/12/07 10:04:15;;;;;;;14.95;13.57;;;;;;;6.18;66.74;101699.34;5005976;28;20030;-70
2022/12/07 10:06:41;;;;;;;14.48;13.48;;;;;;;6.17;66.27;101695.81;5007199;28;20038;-69
2022/12/07 10:09:15;;;;;;;14.85;13.95;;;;;;;6.16;66.64;101688.78;5004728;28;20041;-71
2022/12/07 10:12:06;;;;;;;15.77;14.48;;;;;;;6.17;66.87;101687.75;5006348;28;20104;-69
2022/12/07 10:14:34;;;;;;;29.27;14.82;;;;;;;6.16;66.73;101680.75;5005144;28;20038;-68
2022/12/07 10:17:00;;;;;;;14.70;13.13;;;;;;;6.16;66.65;101686.09;5004107;28;20041;-68
2022/12/07 10:19:31;;;;;;;15.68;14.48;;;;;;;6.16;66.56;101678.06;5004654;28;20466;-68
2022/12/07 10:22:16;;;;;;;13.82;12.50;;;;;;;6.15;66.49;101678.22;5006533;28;20030;-70
2022/12/07 10:24:43;;;;;;;16.40;15.23;;;;;;;6.15;66.39;101671.03;5006125;28;20034;-68
2022/12/07 10:27:21;;;;;;;13.05;12.25;;;;;;;6.16;66.55;101679.91;5006972;28;20436;-70
2022/12/07 10:29:50;;;;;;;15.85;13.90;;;;;;;6.16;66.63;101679.91;4999785;28;20137;-69
2022/12/07 10:32:15;;;;;;;12.52;11.82;;;;;;;6.16;66.47;101674.53;5006002;28;20038;-74
2022/12/07 10:34:41;;;;;;;15.02;13.35;;;;;;;6.15;66.63;101671.03;5005252;28;20033;-65
2022/12/07 10:37:13;;;;;;;14.48;13.30;;;;;;;6.15;66.46;101664.81;5008149;28;20066;-69
2022/12/07 10:39:53;;;;;;;19.27;13.68;;;;;;;6.15;66.41;101664.81;5022197;28;20521;-68
2022/12/07 10:42:19;;;;;;;15.25;14.02;;;;;;;6.15;66.52;101657.63;5003884;28;20041;-70
2022/12/07 10:44:45;;;;;;;15.07;13.90;;;;;;;6.15;66.43;101654.94;5008275;28;20037;-67
2022/12/07 10:47:32;;;;;;;13.38;12.65;;;;;;;6.16;66.49;101661.13;5005257;28;20470;-68
2022/12/07 10:50:19;;;;;;;14.20;13.23;;;;;;;6.16;66.88;101647.72;5003916;28;20034;-70
2022/12/07 10:53:03;;;;;;;24.00;14.32;;;;;;;6.15;66.71;101657.63;5009632;28;20026;-70
2022/12/07 10:56:06;;;;;;;16.88;15.45;;;;;;;6.15;66.85;101652.25;5008237;28;20080;-67
2022/12/07 10:58:50;;;;;;;16.83;15.18;;;;;;;6.15;66.90;101652.25;5007385;28;20073;-68
2022/12/07 11:01:26;;;;;;;15.68;14.57;;;;;;;6.14;66.65;101647.91;5007411;28;20061;-68
2022/12/07 11:04:07;;;;;;;14.35;13.45;;;;;;;6.15;66.76;101641.53;5008163;28;20552;-68
2022/12/07 11:06:45;;;;;;;16.45;14.75;;;;;;;6.15;66.60;101636.16;5008085;28;20064;-67
2022/12/07 11:09:37;;;;;;;14.85;13.95;;;;;;;6.16;67.05;101632.44;5007168;28;20057;-67
2022/12/07 11:12:16;;;;;;;15.15;13.93;;;;;;;6.17;66.98;101627.91;5005904;28;20064;-68
2022/12/07 11:15:12;;;;;;;17.70;14.80;;;;;;;6.17;67.14;101635.97;5020513;28;20096;-67
2022/12/07 11:17:41;;;;;;;16.25;15.02;;;;;;;6.17;66.89;101626.06;5004681;28;20088;-67
2022/12/07 11:20:13;;;;;;;;;;;;;;;6.17;66.80;101626.06;5010760;28;20030;-67
2022/12/07 11:22:38;;;;;;;16.02;14.70;;;;;;;6.18;66.90;101626.91;5006600;28;19921;-68
2022/12/07 11:25:37;;;;;;;15.20;14.20;;;;;;;6.17;66.96;101623.38;5011029;28;20113;-68
2022/12/07 11:28:24;;;;;;;15.25;13.93;;;;;;;6.18;66.91;101618.84;5010136;28;20038;-68